createdAt,value
2018-04-27T00:00:50.086Z,12.40
2018-04-27T00:03:18.455Z,12.30
2018-04-27T00:05:47.594Z,12.20
2018-04-27T00:08:16.004Z,12.10
2018-04-27T00:10:44.357Z,12.20
2018-04-27T00:13:12.648Z,12.30
2018-04-27T00:15:40.929Z,12.30
2018-04-27T00:18:09.212Z,12.30
2018-04-27T00:20:37.526Z,12.30
2018-04-27T00:23:05.928Z,12.20
2018-04-27T00:25:34.287Z,12.00
2018-04-27T00:28:02.682Z,12.00
2018-04-27T00:30:30.982Z,12.00
2018-04-27T00:32:59.274Z,12.10
2018-04-27T00:35:27.571Z,12.10
2018-04-27T00:37:55.890Z,12.10
2018-04-27T00:40:24.162Z,12.00
2018-04-27T00:42:52.453Z,12.00
2018-04-27T00:45:20.741Z,11.90
2018-04-27T00:47:50.312Z,11.80
2018-04-27T00:50:18.594Z,11.80
2018-04-27T00:52:58.669Z,11.90
2018-04-27T00:55:26.950Z,11.80
2018-04-27T00:57:55.301Z,11.80
2018-04-27T01:00:24.344Z,11.80
2018-04-27T01:02:52.620Z,11.80
2018-04-27T01:05:20.918Z,11.80
2018-04-27T01:07:49.211Z,11.80
2018-04-27T01:10:17.585Z,11.80
2018-04-27T01:12:45.957Z,11.80
2018-04-27T01:15:14.250Z,11.70
2018-04-27T01:17:42.539Z,11.70
2018-04-27T01:20:10.839Z,11.70
2018-04-27T01:22:39.120Z,11.60
2018-04-27T01:25:07.399Z,11.60
2018-04-27T01:27:35.691Z,11.60
2018-04-27T01:30:04.064Z,11.60
2018-04-27T01:32:33.114Z,11.60
2018-04-27T01:35:01.440Z,11.60
2018-04-27T01:37:29.733Z,11.60
2018-04-27T01:39:58.001Z,11.60
2018-04-27T01:42:26.283Z,11.50
2018-04-27T01:44:54.592Z,11.20
2018-04-27T01:47:22.869Z,11.20
2018-04-27T01:49:51.418Z,11.30
2018-04-27T01:52:19.700Z,11.40
2018-04-27T01:54:47.996Z,11.50
2018-04-27T01:57:16.300Z,11.50
2018-04-27T01:59:44.590Z,11.50
2018-04-27T02:02:12.881Z,11.50
2018-04-27T02:04:41.194Z,11.40
2018-04-27T02:07:09.482Z,11.40
2018-04-27T02:09:37.762Z,11.30
2018-04-27T02:12:06.791Z,11.30
2018-04-27T02:14:35.040Z,11.30
2018-04-27T02:17:03.302Z,11.20
2018-04-27T02:19:32.338Z,11.10
2018-04-27T02:22:00.597Z,11.10
2018-04-27T02:24:28.884Z,11.00
2018-04-27T02:26:57.138Z,11.00
2018-04-27T02:29:25.415Z,11.10
2018-04-27T02:31:53.896Z,11.20
2018-04-27T02:34:22.158Z,11.20
2018-04-27T02:36:51.242Z,11.30
2018-04-27T02:39:19.497Z,11.20
2018-04-27T02:41:47.746Z,11.20
2018-04-27T02:44:16.016Z,11.20
2018-04-27T02:46:44.259Z,11.10
2018-04-27T02:49:13.307Z,11.00
2018-04-27T02:51:41.564Z,11.00
2018-04-27T02:54:09.830Z,11.00
2018-04-27T02:56:38.090Z,11.00
2018-04-27T02:59:06.391Z,10.90
2018-04-27T03:01:34.635Z,11.00
2018-04-27T03:04:02.937Z,11.00
2018-04-27T03:06:31.195Z,11.00
2018-04-27T03:09:00.212Z,11.00
2018-04-27T03:11:28.483Z,11.00
2018-04-27T03:13:56.732Z,11.00
2018-04-27T03:16:25.747Z,11.00
2018-04-27T03:18:54.028Z,11.10
2018-04-27T03:21:22.300Z,11.10
2018-04-27T03:23:50.597Z,11.10
2018-04-27T03:26:19.611Z,11.00
2018-04-27T03:28:47.920Z,11.00
2018-04-27T03:31:16.162Z,11.00
2018-04-27T03:33:44.438Z,10.90
2018-04-27T03:36:12.691Z,10.90
2018-04-27T03:38:41.862Z,10.80
2018-04-27T03:41:10.145Z,10.80
2018-04-27T03:43:38.429Z,10.70
2018-04-27T03:46:06.678Z,10.70
2018-04-27T03:48:34.955Z,10.60
2018-04-27T03:51:04.878Z,10.60
2018-04-27T03:53:33.155Z,10.60
2018-04-27T03:56:01.422Z,10.60
2018-04-27T03:58:30.431Z,10.60
2018-04-27T04:01:10.448Z,10.60
2018-04-27T04:03:50.604Z,10.70
2018-04-27T04:06:18.884Z,10.70
2018-04-27T04:08:47.123Z,10.70
2018-04-27T04:11:15.382Z,10.60
2018-04-27T04:13:44.415Z,10.50
2018-04-27T04:16:12.676Z,10.50
2018-04-27T04:18:40.956Z,10.60
2018-04-27T04:21:09.235Z,10.60
2018-04-27T04:23:37.547Z,10.60
2018-04-27T04:26:05.811Z,10.50
2018-04-27T04:28:34.085Z,10.50
2018-04-27T04:31:02.376Z,10.50
2018-04-27T04:33:30.638Z,10.50
2018-04-27T04:35:58.921Z,10.60
2018-04-27T04:38:27.973Z,10.70
2018-04-27T04:40:56.360Z,10.70
2018-04-27T04:43:24.623Z,10.80
2018-04-27T04:45:52.897Z,10.70
2018-04-27T04:48:21.143Z,10.70
2018-04-27T04:50:50.169Z,10.70
2018-04-27T04:53:18.433Z,10.70
2018-04-27T04:55:46.707Z,10.70
2018-04-27T04:58:14.981Z,10.70
2018-04-27T05:00:43.269Z,10.80
2018-04-27T05:03:11.523Z,10.80
2018-04-27T05:05:39.806Z,10.90
2018-04-27T05:08:08.075Z,10.90
2018-04-27T05:10:36.406Z,11.00
2018-04-27T05:13:04.602Z,11.10
2018-04-27T05:15:33.656Z,11.10
2018-04-27T05:18:07.834Z,11.10
2018-04-27T05:20:36.895Z,11.20
2018-04-27T05:23:05.162Z,11.20
2018-04-27T05:25:33.433Z,11.20
2018-04-27T05:28:01.722Z,11.10
2018-04-27T05:30:30.061Z,11.00
2018-04-27T05:33:04.653Z,11.10
2018-04-27T05:35:33.672Z,11.20
2018-04-27T05:38:01.939Z,11.20
2018-04-27T05:40:30.265Z,11.10
2018-04-27T05:42:58.486Z,11.00
2018-04-27T05:45:26.760Z,11.10
2018-04-27T05:47:55.130Z,11.20
2018-04-27T05:50:24.175Z,11.20
2018-04-27T05:52:52.419Z,11.20
2018-04-27T05:55:20.700Z,11.30
2018-04-27T05:57:48.985Z,11.30
2018-04-27T06:00:17.248Z,11.30
2018-04-27T06:02:45.535Z,11.40
2018-04-27T06:05:13.948Z,11.30
2018-04-27T06:07:42.219Z,11.20
2018-04-27T06:10:10.498Z,11.10
2018-04-27T06:12:38.783Z,11.20
2018-04-27T06:15:07.134Z,11.20
2018-04-27T06:17:35.390Z,11.30
2018-04-27T06:20:03.632Z,11.30
2018-04-27T06:22:32.653Z,11.60
2018-04-27T06:25:00.950Z,11.60
2018-04-27T06:27:29.220Z,11.70
2018-04-27T06:29:58.334Z,11.80
2018-04-27T06:32:26.581Z,12.00
2018-04-27T06:34:54.886Z,12.30
2018-04-27T06:37:23.138Z,13.40
2018-04-27T06:39:51.411Z,15.50
2018-04-27T06:42:19.683Z,16.20
2018-04-27T06:44:47.962Z,16.20
2018-04-27T06:47:17.029Z,20.70
2018-04-27T06:49:46.056Z,22.90
2018-04-27T06:52:14.309Z,22.80
2018-04-27T06:54:42.584Z,23.70
2018-04-27T06:57:11.011Z,24.10
2018-04-27T06:59:39.253Z,23.50
2018-04-27T07:02:08.286Z,24.00
2018-04-27T07:04:36.665Z,24.60
2018-04-27T07:07:04.935Z,25.30
2018-04-27T07:09:33.198Z,25.60
2018-04-27T07:12:01.469Z,26.40
2018-04-27T07:14:29.738Z,26.90
2018-04-27T07:16:58.168Z,26.70
2018-04-27T07:19:26.435Z,26.40
2018-04-27T07:21:54.734Z,25.70
2018-04-27T07:24:23.744Z,25.80
2018-04-27T07:26:52.020Z,25.80
2018-04-27T07:29:20.289Z,26.00
2018-04-27T07:31:49.309Z,25.70
2018-04-27T07:34:17.585Z,25.70
2018-04-27T07:36:45.848Z,26.40
2018-04-27T07:39:14.145Z,27.60
2018-04-27T07:41:42.450Z,27.70
2018-04-27T07:44:10.757Z,26.90
2018-04-27T07:46:39.785Z,28.70
2018-04-27T07:49:08.097Z,28.70
2018-04-27T07:51:36.400Z,29.20
2018-04-27T07:54:05.441Z,28.50
2018-04-27T07:56:34.559Z,28.30
2018-04-27T07:59:02.811Z,28.30
2018-04-27T08:01:31.081Z,28.90
2018-04-27T08:03:59.350Z,29.30
2018-04-27T08:06:28.285Z,29.30
2018-04-27T08:08:56.583Z,29.70
2018-04-27T08:11:24.883Z,29.30
2018-04-27T08:13:53.099Z,30.10
2018-04-27T08:16:21.401Z,30.00
2018-04-27T08:18:49.722Z,29.80
2018-04-27T08:21:17.982Z,30.10
2018-04-27T08:23:47.067Z,29.20
2018-04-27T08:26:20.736Z,28.50
2018-04-27T08:28:49.053Z,28.50
2018-04-27T08:31:18.090Z,29.40
2018-04-27T08:33:46.377Z,29.40
2018-04-27T08:36:14.683Z,30.10
2018-04-27T08:38:42.938Z,29.30
2018-04-27T08:41:11.213Z,28.50
2018-04-27T08:43:39.485Z,25.70
2018-04-27T08:46:07.790Z,23.90
2018-04-27T08:48:36.049Z,21.70
2018-04-27T08:51:04.637Z,20.60
2018-04-27T08:53:32.926Z,19.90
2018-04-27T08:56:01.303Z,19.60
2018-04-27T08:58:29.563Z,19.30
2018-04-27T09:00:57.841Z,19.30
2018-04-27T09:03:26.123Z,19.30
2018-04-27T09:05:54.407Z,19.10
2018-04-27T09:08:22.677Z,19.00
2018-04-27T09:10:50.953Z,19.00
2018-04-27T09:13:19.217Z,18.40
2018-04-27T09:15:47.513Z,18.60
2018-04-27T09:18:15.771Z,18.40
2018-04-27T09:20:44.023Z,18.10
2018-04-27T09:23:12.280Z,18.10
2018-04-27T09:25:40.535Z,18.30
2018-04-27T09:28:09.536Z,18.50
2018-04-27T09:30:37.810Z,18.40
2018-04-27T09:33:06.067Z,18.80
2018-04-27T09:35:35.210Z,19.00
2018-04-27T09:38:03.465Z,19.00
2018-04-27T09:40:31.719Z,18.80
2018-04-27T09:43:00.849Z,18.90
2018-04-27T09:45:29.139Z,18.80
2018-04-27T09:47:57.383Z,18.70
2018-04-27T09:50:25.653Z,18.80
2018-04-27T09:52:54.727Z,18.50
2018-04-27T09:55:23.039Z,18.40
2018-04-27T09:57:51.337Z,18.50
2018-04-27T10:00:19.618Z,18.50
2018-04-27T10:02:47.915Z,18.60
2018-04-27T10:05:16.200Z,18.70
2018-04-27T10:07:44.475Z,18.60
2018-04-27T10:10:12.724Z,18.80
2018-04-27T10:12:41.885Z,18.90
2018-04-27T10:15:10.153Z,18.80
2018-04-27T10:17:39.184Z,18.90
2018-04-27T10:20:07.463Z,18.90
2018-04-27T10:22:35.777Z,19.00
2018-04-27T10:25:04.490Z,19.10
2018-04-27T10:27:32.767Z,19.10
2018-04-27T10:30:01.031Z,19.00
2018-04-27T10:32:30.100Z,19.40
2018-04-27T10:34:58.375Z,19.40
2018-04-27T10:37:26.603Z,19.40
2018-04-27T10:39:54.899Z,19.20
2018-04-27T10:42:23.170Z,19.20
2018-04-27T10:44:51.459Z,19.30
2018-04-27T10:47:19.720Z,19.40
2018-04-27T10:49:47.995Z,19.50
2018-04-27T10:52:16.302Z,19.60
2018-04-27T10:54:44.566Z,19.50
2018-04-27T10:57:12.817Z,19.50
2018-04-27T10:59:41.236Z,19.60
2018-04-27T11:02:09.543Z,19.70
2018-04-27T11:04:37.811Z,19.70
2018-04-27T11:07:06.134Z,19.60
2018-04-27T11:09:34.399Z,19.50
2018-04-27T11:12:02.673Z,19.30
2018-04-27T11:14:30.946Z,19.40
2018-04-27T11:16:59.328Z,19.50
2018-04-27T11:19:27.517Z,19.70
2018-04-27T11:21:55.769Z,19.90
2018-04-27T11:24:25.176Z,20.20
2018-04-27T11:26:54.183Z,20.30
2018-04-27T11:29:22.523Z,20.20
2018-04-27T11:31:50.822Z,20.40
2018-04-27T11:34:19.832Z,20.50
2018-04-27T11:36:48.083Z,20.40
2018-04-27T11:39:17.118Z,20.20
2018-04-27T11:41:45.366Z,20.20
2018-04-27T11:44:14.107Z,20.20
2018-04-27T11:46:42.346Z,20.20
2018-04-27T11:49:10.600Z,20.10
2018-04-27T11:51:39.643Z,20.30
2018-04-27T11:54:07.923Z,20.30
2018-04-27T11:56:37.599Z,20.40
2018-04-27T11:59:05.869Z,20.40
2018-04-27T12:01:34.163Z,20.30
2018-04-27T12:04:02.480Z,20.30
2018-04-27T12:06:30.732Z,20.10
2018-04-27T12:08:59.006Z,20.20
2018-04-27T12:11:27.273Z,20.30
2018-04-27T12:13:55.531Z,20.50
2018-04-27T12:16:23.794Z,20.60
2018-04-27T12:18:52.069Z,20.60
2018-04-27T12:21:20.380Z,20.60
2018-04-27T12:23:48.683Z,20.50
2018-04-27T12:26:17.459Z,20.70
2018-04-27T12:28:45.705Z,20.80
2018-04-27T12:31:14.074Z,20.80
2018-04-27T12:33:42.229Z,20.80
2018-04-27T12:36:11.281Z,20.90
2018-04-27T12:38:39.540Z,20.90
2018-04-27T12:41:07.805Z,20.80
2018-04-27T12:43:36.134Z,20.80
2018-04-27T12:46:04.430Z,20.90
2018-04-27T12:48:33.471Z,21.00
2018-04-27T12:51:01.747Z,21.00
2018-04-27T12:53:30.122Z,21.10
2018-04-27T12:55:59.072Z,21.10
2018-04-27T12:58:28.157Z,21.40
2018-04-27T13:00:56.419Z,21.30
2018-04-27T13:03:24.680Z,21.40
2018-04-27T13:05:52.966Z,21.40
2018-04-27T13:08:21.225Z,21.40
2018-04-27T13:10:49.470Z,21.40
2018-04-27T13:13:17.771Z,21.60
2018-04-27T13:15:46.022Z,21.60
2018-04-27T13:18:14.269Z,21.60
2018-04-27T13:20:43.332Z,21.60
2018-04-27T13:23:11.566Z,21.60
2018-04-27T13:25:39.850Z,21.40
2018-04-27T13:28:08.152Z,21.30
2018-04-27T13:30:36.533Z,21.40
2018-04-27T13:33:04.812Z,21.50
2018-04-27T13:35:33.091Z,21.40
2018-04-27T13:38:01.355Z,21.50
2018-04-27T13:40:29.619Z,21.40
2018-04-27T13:42:57.933Z,21.30
2018-04-27T13:45:26.331Z,21.40
2018-04-27T13:47:54.531Z,21.50
2018-04-27T13:50:22.778Z,21.60
2018-04-27T13:52:51.848Z,21.70
2018-04-27T13:55:20.168Z,21.80
2018-04-27T13:57:48.497Z,21.70
2018-04-27T14:00:16.864Z,21.70
2018-04-27T14:02:45.094Z,21.60
2018-04-27T14:05:13.391Z,21.60
2018-04-27T14:07:41.666Z,21.60
2018-04-27T14:10:10.675Z,21.60
2018-04-27T14:12:38.941Z,21.60
2018-04-27T14:15:07.209Z,21.50
2018-04-27T14:17:35.472Z,21.40
2018-04-27T14:20:04.592Z,21.60
2018-04-27T14:22:33.836Z,21.50
2018-04-27T14:25:02.057Z,21.60
2018-04-27T14:27:30.305Z,21.60
2018-04-27T14:29:59.379Z,21.70
2018-04-27T14:32:27.655Z,21.70
2018-04-27T14:34:55.925Z,21.70
2018-04-27T14:37:24.177Z,21.80
2018-04-27T14:39:52.437Z,21.90
2018-04-27T14:42:20.699Z,21.80
2018-04-27T14:44:48.982Z,21.90
2018-04-27T14:47:17.262Z,21.70
2018-04-27T14:49:45.513Z,21.80
2018-04-27T14:52:13.774Z,21.90
2018-04-27T14:54:42.803Z,22.00
2018-04-27T14:57:11.066Z,22.00
2018-04-27T14:59:39.409Z,22.00
2018-04-27T15:02:08.387Z,22.10
2018-04-27T15:04:36.647Z,22.10
2018-04-27T15:07:04.939Z,22.10
2018-04-27T15:09:33.258Z,22.00
2018-04-27T15:12:01.494Z,22.00
2018-04-27T15:14:29.745Z,22.00
2018-04-27T15:16:57.971Z,22.00
2018-04-27T15:19:27.171Z,22.00
2018-04-27T15:21:56.236Z,22.00
2018-04-27T15:24:24.789Z,22.00
2018-04-27T15:26:53.104Z,22.00
2018-04-27T15:29:21.455Z,22.00
2018-04-27T15:31:49.719Z,22.00
2018-04-27T15:34:17.981Z,21.80
2018-04-27T15:36:46.235Z,22.00
2018-04-27T15:39:14.525Z,22.00
2018-04-27T15:41:43.552Z,21.90
2018-04-27T15:44:11.831Z,21.90
2018-04-27T15:46:40.089Z,21.90
2018-04-27T15:49:08.405Z,21.80
2018-04-27T15:51:36.688Z,21.70
2018-04-27T15:54:04.967Z,21.70
2018-04-27T15:56:33.273Z,21.80
2018-04-27T15:59:01.546Z,21.70
2018-04-27T16:01:29.843Z,21.70
2018-04-27T16:03:58.136Z,21.70
2018-04-27T16:06:26.470Z,21.80
2018-04-27T16:08:55.487Z,21.90
2018-04-27T16:11:24.516Z,21.70
2018-04-27T16:13:54.590Z,21.70
2018-04-27T16:16:26.833Z,21.70
2018-04-27T16:18:55.699Z,21.70
2018-04-27T16:21:23.991Z,21.60
2018-04-27T16:23:52.267Z,21.60
2018-04-27T16:26:32.999Z,21.60
2018-04-27T16:29:01.275Z,21.50
2018-04-27T16:31:30.356Z,21.50
2018-04-27T16:33:59.495Z,21.50
2018-04-27T16:36:27.945Z,21.50
2018-04-27T16:38:56.248Z,21.40
2018-04-27T16:41:24.498Z,21.40
2018-04-27T16:43:52.804Z,21.30
2018-04-27T16:46:21.048Z,21.20
2018-04-27T16:48:49.327Z,21.20
2018-04-27T16:51:17.568Z,21.10
2018-04-27T16:53:46.624Z,21.00
2018-04-27T16:56:14.882Z,21.00
2018-04-27T16:58:43.166Z,21.10
2018-04-27T17:01:11.468Z,21.10
2018-04-27T17:03:39.772Z,21.00
2018-04-27T17:06:08.027Z,21.00
2018-04-27T17:08:36.255Z,21.00
2018-04-27T17:11:04.612Z,21.00
2018-04-27T17:13:33.678Z,21.00
2018-04-27T17:16:02.825Z,21.00
2018-04-27T17:18:31.949Z,21.00
2018-04-27T17:21:01.014Z,21.00
2018-04-27T17:23:29.603Z,21.00
2018-04-27T17:25:57.871Z,20.90
2018-04-27T17:28:26.138Z,20.90
2018-04-27T17:30:54.392Z,20.90
2018-04-27T17:33:23.421Z,21.00
2018-04-27T17:35:51.718Z,21.00
2018-04-27T17:38:20.006Z,21.00
2018-04-27T17:40:49.842Z,20.80
2018-04-27T17:43:18.101Z,20.80
2018-04-27T17:45:46.414Z,20.80
2018-04-27T17:48:15.433Z,20.80
2018-04-27T17:50:43.716Z,20.80
2018-04-27T17:53:11.989Z,20.70
2018-04-27T17:55:40.301Z,20.80
2018-04-27T17:58:08.513Z,20.80
2018-04-27T18:00:37.581Z,20.80
2018-04-27T18:03:05.869Z,20.80
2018-04-27T18:05:34.886Z,20.70
2018-04-27T18:08:03.140Z,20.70
2018-04-27T18:10:32.226Z,20.60
2018-04-27T18:13:00.486Z,20.60
2018-04-27T18:15:28.797Z,20.50
2018-04-27T18:17:57.047Z,20.60
2018-04-27T18:20:25.319Z,20.50
2018-04-27T18:22:53.611Z,20.50
2018-04-27T18:25:21.900Z,20.50
2018-04-27T18:27:50.177Z,20.50
2018-04-27T18:30:18.470Z,20.50
2018-04-27T18:32:46.743Z,20.50
2018-04-27T18:35:15.144Z,20.40
2018-04-27T18:37:43.389Z,20.30
2018-04-27T18:40:11.665Z,20.30
2018-04-27T18:42:40.720Z,20.10
2018-04-27T18:45:08.975Z,20.10
2018-04-27T18:47:37.378Z,20.20
2018-04-27T18:50:06.418Z,20.10
2018-04-27T18:52:35.451Z,20.10
2018-04-27T18:55:03.786Z,20.10
2018-04-27T18:57:32.101Z,20.10
2018-04-27T19:00:00.356Z,20.10
2018-04-27T19:02:28.623Z,20.10
2018-04-27T19:04:56.882Z,20.00
2018-04-27T19:07:26.770Z,20.00
2018-04-27T19:09:55.083Z,20.00
2018-04-27T19:12:23.419Z,19.90
2018-04-27T19:14:52.619Z,19.80
2018-04-27T19:17:20.878Z,19.80
2018-04-27T19:19:49.190Z,19.70
2018-04-27T19:22:19.895Z,19.70
2018-04-27T19:24:48.191Z,19.60
2018-04-27T19:27:16.461Z,19.50
2018-04-27T19:29:44.742Z,19.40
2018-04-27T19:32:13.038Z,19.30
2018-04-27T19:34:42.051Z,19.10
2018-04-27T19:37:10.326Z,19.10
2018-04-27T19:39:38.670Z,19.00
2018-04-27T19:42:07.027Z,18.90
2018-04-27T19:44:35.317Z,18.90
2018-04-27T19:47:03.594Z,18.80
2018-04-27T19:49:32.013Z,18.70
2018-04-27T19:52:02.566Z,18.70
2018-04-27T19:54:30.806Z,18.60
2018-04-27T19:56:59.913Z,18.50
2018-04-27T19:59:28.982Z,18.50
2018-04-27T20:01:57.243Z,18.40
2018-04-27T20:04:25.827Z,18.40
2018-04-27T20:06:54.183Z,18.30
2018-04-27T20:09:22.477Z,18.30
2018-04-27T20:11:50.783Z,18.30
2018-04-27T20:14:27.970Z,18.20
2018-04-27T20:16:56.337Z,18.20
2018-04-27T20:19:24.558Z,18.20
2018-04-27T20:21:52.917Z,18.20
2018-04-27T20:24:21.207Z,18.20
2018-04-27T20:26:50.230Z,18.20
2018-04-27T20:29:18.551Z,18.20
2018-04-27T20:31:46.817Z,18.30
2018-04-27T20:34:15.110Z,18.20
2018-04-27T20:36:44.153Z,18.20
2018-04-27T20:39:13.183Z,18.20
2018-04-27T20:41:42.226Z,18.20
2018-04-27T20:44:10.493Z,18.20
2018-04-27T20:46:38.805Z,18.10
2018-04-27T20:49:07.141Z,18.10
2018-04-27T20:51:35.417Z,18.10
2018-04-27T20:54:04.552Z,18.10
2018-04-27T20:56:39.279Z,18.20
2018-04-27T20:59:07.533Z,18.20
2018-04-27T21:01:35.794Z,18.30
2018-04-27T21:04:05.484Z,18.30
2018-04-27T21:06:33.733Z,18.40
2018-04-27T21:09:02.032Z,18.40
2018-04-27T21:11:33.645Z,18.40
2018-04-27T21:14:03.705Z,18.40
2018-04-27T21:16:32.787Z,18.40
2018-04-27T21:19:01.035Z,18.30
2018-04-27T21:21:29.328Z,18.30
2018-04-27T21:23:57.568Z,18.30
2018-04-27T21:26:26.619Z,18.20
2018-04-27T21:28:56.615Z,18.10
2018-04-27T21:31:24.862Z,18.10
2018-04-27T21:33:53.126Z,18.10
2018-04-27T21:36:22.673Z,18.00
2018-04-27T21:38:51.741Z,17.90
2018-04-27T21:41:22.536Z,17.90
2018-04-27T21:43:51.535Z,17.80
2018-04-27T21:46:19.803Z,17.70
2018-04-27T21:48:48.054Z,17.70
2018-04-27T21:51:17.118Z,17.50
2018-04-27T21:53:45.386Z,17.50
2018-04-27T21:56:13.662Z,17.50
2018-04-27T21:58:42.020Z,17.40
2018-04-27T22:01:10.282Z,17.40
2018-04-27T22:03:38.563Z,17.40
2018-04-27T22:06:14.707Z,17.40
2018-04-27T22:08:44.549Z,17.30
2018-04-27T22:14:15.314Z,17.20
2018-04-27T22:16:45.305Z,17.10
2018-04-27T22:19:17.295Z,17.00
2018-04-27T22:21:46.535Z,17.00
2018-04-27T22:24:14.838Z,16.90
2018-04-27T22:26:44.864Z,17.00
2018-04-27T22:29:25.107Z,17.00
2018-04-27T22:34:54.333Z,17.00
2018-04-27T22:37:22.604Z,17.00
2018-04-27T22:40:02.621Z,16.90
2018-04-27T22:42:33.666Z,16.70
2018-04-27T22:45:17.569Z,16.60
2018-04-27T22:48:11.217Z,16.60
2018-04-27T22:50:46.187Z,16.50
2018-04-27T22:53:14.451Z,16.50
2018-04-27T22:55:42.698Z,16.60
2018-04-27T22:58:11.786Z,16.60
2018-04-27T23:00:44.695Z,16.70
2018-04-27T23:03:12.949Z,16.70
2018-04-27T23:05:42.683Z,16.60
2018-04-27T23:08:10.942Z,16.60
2018-04-27T23:10:51.279Z,16.50
2018-04-27T23:13:46.222Z,16.40
2018-04-27T23:16:15.216Z,16.30
2018-04-27T23:18:44.470Z,16.30
2018-04-27T23:21:33.210Z,16.40
2018-04-27T23:24:01.464Z,16.40
2018-04-27T23:26:29.714Z,16.30
2018-04-27T23:28:57.971Z,16.40
2018-04-27T23:31:27.021Z,16.30
2018-04-27T23:33:55.262Z,16.30
2018-04-27T23:36:23.552Z,16.30
2018-04-27T23:38:51.865Z,16.50
2018-04-27T23:41:20.121Z,16.30
2018-04-27T23:43:48.468Z,16.30
2018-04-27T23:46:16.733Z,16.40
2018-04-27T23:48:45.748Z,16.40
2018-04-27T23:51:14.020Z,16.40
2018-04-27T23:53:42.273Z,16.30
2018-04-27T23:56:11.287Z,16.20
2018-04-27T23:58:40.379Z,16.20
